Time;durP1;ratioP1;P1;durP2;ratioP2;P2;SDS_P1;SDS_P2;PMS_P1;PMS_P2;Temp;Humidity;BMP_temperature;BMP_pressure;BME280_temperature;BME280_humidity;BME280_pressure;Samples;Min_cycle;Max_cycle;Signal;HPM_P1;HPM_P2
2021/09/10 00:00:43;;;;;;;15.68;13.68;;;15.70;99.90;;;;;;5013490;28;20069;-65
2021/09/10 00:03:10;;;;;;;15.70;14.02;;;15.60;99.90;;;;;;5013429;28;20138;-68
2021/09/10 00:05:38;;;;;;;20.25;16.08;;;15.60;99.90;;;;;;5013510;28;20054;-70
2021/09/10 00:08:04;;;;;;;15.80;14.20;;;15.60;99.90;;;;;;5011814;28;20076;-68
2021/09/10 00:10:31;;;;;;;17.00;13.20;;;15.60;99.90;;;;;;5012848;28;20042;-68
2021/09/10 00:12:59;;;;;;;17.33;14.63;;;15.70;99.90;;;;;;5013182;28;20049;-70
2021/09/10 00:15:27;;;;;;;16.20;13.35;;;15.70;99.90;;;;;;5013136;28;20506;-66
2021/09/10 00:17:55;;;;;;;16.10;14.55;;;15.70;99.90;;;;;;5011686;28;20066;-66
2021/09/10 00:20:22;;;;;;;18.92;14.63;;;15.70;99.90;;;;;;5013016;28;20070;-68
2021/09/10 00:22:49;;;;;;;15.18;13.63;;;15.70;99.90;;;;;;5012125;28;20076;-67
2021/09/10 00:25:16;;;;;;;17.33;15.57;;;15.70;99.90;;;;;;5012274;28;20165;-69
2021/09/10 00:27:42;;;;;;;14.88;13.48;;;15.70;99.90;;;;;;5013115;28;20050;-71
2021/09/10 00:30:10;;;;;;;15.63;14.10;;;15.70;99.90;;;;;;5011436;28;20073;-68
2021/09/10 00:32:37;;;;;;;14.30;12.80;;;15.70;99.90;;;;;;5013100;28;20068;-69
2021/09/10 00:35:04;;;;;;;16.10;14.40;;;15.60;99.90;;;;;;5013112;28;20046;-69
2021/09/10 00:37:31;;;;;;;15.77;13.48;;;15.60;99.90;;;;;;5013129;28;20046;-68
2021/09/10 00:39:58;;;;;;;16.13;14.52;;;15.60;99.90;;;;;;5011336;28;20054;-65
2021/09/10 00:42:25;;;;;;;14.80;13.45;;;15.50;99.90;;;;;;5012704;28;20149;-67
2021/09/10 00:44:52;;;;;;;16.25;14.57;;;15.50;99.90;;;;;;5012989;28;20514;-67
2021/09/10 00:47:19;;;;;;;16.33;14.73;;;15.50;99.90;;;;;;5012666;28;20057;-68
2021/09/10 00:49:46;;;;;;;16.30;14.70;;;15.50;99.90;;;;;;5011983;28;20479;-70
2021/09/10 00:52:13;;;;;;;17.08;13.18;;;15.40;99.90;;;;;;5010635;28;20049;-67
2021/09/10 00:54:40;;;;;;;15.48;13.98;;;15.40;99.90;;;;;;5012422;28;20160;-66
2021/09/10 00:57:07;;;;;;;19.83;15.45;;;15.30;99.90;;;;;;5012486;28;20112;-68
2021/09/10 00:59:34;;;;;;;14.35;12.88;;;15.30;99.90;;;;;;5012685;28;20058;-67
2021/09/10 01:02:01;;;;;;;15.63;14.13;;;15.20;99.90;;;;;;5010372;28;20054;-67
2021/09/10 01:04:30;;;;;;;17.40;15.73;;;15.20;99.90;;;;;;5011777;28;20069;-69
2021/09/10 01:06:57;;;;;;;15.30;13.82;;;15.20;99.90;;;;;;5012530;28;20065;-68
2021/09/10 01:09:25;;;;;;;20.33;16.05;;;15.20;99.90;;;;;;5012190;28;20073;-67
2021/09/10 01:11:53;;;;;;;17.05;15.32;;;15.10;99.90;;;;;;5010762;28;20555;-67
2021/09/10 01:14:20;;;;;;;15.70;14.05;;;15.10;99.90;;;;;;5012060;28;20061;-67
2021/09/10 01:16:48;;;;;;;16.50;14.90;;;15.10;99.90;;;;;;5012176;28;20073;-68
2021/09/10 01:19:28;;;;;;;17.08;15.18;;;15.10;99.90;;;;;;5012070;28;20061;-67
2021/09/10 01:22:00;;;;;;;17.00;15.27;;;15.00;99.90;;;;;;5010239;28;20077;-65
2021/09/10 01:24:31;;;;;;;17.77;15.88;;;15.00;99.90;;;;;;5011403;28;20573;-65
2021/09/10 01:26:59;;;;;;;;;;;15.00;99.90;;;;;;5012181;28;20046;-70
2021/09/10 01:29:26;;;;;;;16.15;14.35;;;15.00;99.90;;;;;;5012017;28;19921;-68
2021/09/10 01:31:53;;;;;;;17.38;15.77;;;15.00;99.90;;;;;;5010219;28;20073;-65
2021/09/10 01:34:21;;;;;;;16.90;15.30;;;15.00;99.90;;;;;;5011569;28;20069;-68
2021/09/10 01:36:48;;;;;;;21.58;15.45;;;14.90;99.90;;;;;;5011457;28;20103;-68
2021/09/10 01:39:15;;;;;;;17.00;14.23;;;14.80;99.90;;;;;;5011557;28;20045;-67
2021/09/10 01:41:42;;;;;;;18.73;16.85;;;14.80;99.90;;;;;;5011132;28;20053;-68
2021/09/10 01:44:09;;;;;;;18.33;16.27;;;14.80;99.90;;;;;;5009151;28;20073;-65
2021/09/10 01:46:36;;;;;;;17.67;15.00;;;14.70;99.90;;;;;;5010015;28;20045;-68
2021/09/10 01:49:03;;;;;;;15.48;13.98;;;14.70;99.90;;;;;;5011257;28;20049;-65
2021/09/10 01:51:34;;;;;;;19.38;17.48;;;14.70;99.90;;;;;;5011075;28;20137;-65
2021/09/10 01:54:01;;;;;;;16.85;15.13;;;14.70;99.90;;;;;;5010041;28;20070;-67
2021/09/10 01:56:28;;;;;;;18.10;16.27;;;14.60;99.90;;;;;;5011356;28;20084;-69
2021/09/10 01:58:55;;;;;;;20.13;17.77;;;14.60;99.90;;;;;;5011393;28;20049;-66
2021/09/10 02:01:27;;;;;;;17.92;16.15;;;14.60;99.90;;;;;;5010668;28;20096;-68
2021/09/10 02:03:55;;;;;;;18.60;16.73;;;14.60;99.90;;;;;;5009136;28;20058;-64
2021/09/10 02:06:22;;;;;;;18.65;16.48;;;14.70;99.90;;;;;;5011292;28;20050;-67
2021/09/10 02:08:49;;;;;;;18.02;16.23;;;14.70;99.90;;;;;;5011018;28;20049;-66
2021/09/10 02:11:15;;;;;;;18.48;15.65;;;14.70;99.90;;;;;;5011001;28;20103;-66
2021/09/10 02:13:43;;;;;;;17.90;16.20;;;14.70;99.90;;;;;;5010577;28;20057;-68
2021/09/10 02:16:11;;;;;;;15.63;14.02;;;14.70;99.90;;;;;;5008975;28;20104;-65
2021/09/10 02:18:39;;;;;;;18.52;16.83;;;14.70;99.90;;;;;;5011081;28;20103;-66
2021/09/10 02:21:06;;;;;;;17.80;15.85;;;14.80;99.90;;;;;;5010384;28;20046;-68
2021/09/10 02:23:34;;;;;;;19.23;17.23;;;14.80;99.90;;;;;;5009060;28;20488;-67
2021/09/10 02:26:02;;;;;;;19.45;16.52;;;14.80;99.90;;;;;;5008893;28;20049;-67
2021/09/10 02:28:28;;;;;;;18.08;16.27;;;14.90;99.90;;;;;;5010692;28;20046;-69
2021/09/10 02:30:55;;;;;;;19.65;17.42;;;14.90;99.90;;;;;;5010593;28;20082;-68
2021/09/10 02:33:22;;;;;;;19.27;17.38;;;14.90;99.90;;;;;;5010706;28;20146;-65
2021/09/10 02:35:49;;;;;;;18.02;16.13;;;14.90;99.90;;;;;;5010543;28;20410;-67
2021/09/10 02:38:16;;;;;;;18.95;16.35;;;15.00;99.90;;;;;;5009003;28;20131;-69
2021/09/10 02:40:43;;;;;;;17.05;15.45;;;15.00;99.90;;;;;;5010774;28;20088;-67
2021/09/10 02:43:10;;;;;;;16.52;14.85;;;14.90;99.90;;;;;;5009821;28;20491;-65
2021/09/10 02:45:37;;;;;;;17.75;15.95;;;15.00;99.90;;;;;;5010246;28;20069;-65
2021/09/10 02:48:04;;;;;;;18.10;16.25;;;15.00;99.90;;;;;;5008828;28;20456;-68
2021/09/10 02:50:31;;;;;;;18.58;16.77;;;15.00;99.90;;;;;;5010594;28;20088;-69
2021/09/10 02:52:58;;;;;;;16.60;14.95;;;15.10;99.90;;;;;;5010227;28;20054;-68
2021/09/10 02:55:29;;;;;;;17.15;15.48;;;15.10;99.90;;;;;;5010378;28;20053;-68
2021/09/10 02:57:56;;;;;;;16.58;14.88;;;15.10;99.90;;;;;;5008610;28;20054;-67
2021/09/10 03:00:24;;;;;;;18.75;16.85;;;15.10;99.90;;;;;;5010358;28;20057;-70
2021/09/10 03:02:51;;;;;;;26.10;15.73;;;15.20;99.90;;;;;;5009978;28;20058;-67
2021/09/10 03:05:19;;;;;;;16.27;14.68;;;15.10;99.90;;;;;;5010333;28;20064;-66
2021/09/10 03:07:46;;;;;;;17.45;15.65;;;15.20;99.90;;;;;;5010260;28;20485;-67
2021/09/10 03:10:13;;;;;;;20.90;18.00;;;15.20;99.90;;;;;;5008882;28;20046;-65
2021/09/10 03:12:40;;;;;;;18.55;14.65;;;15.20;99.90;;;;;;5009976;28;20084;-66
2021/09/10 03:15:10;;;;;;;16.73;14.77;;;15.30;99.90;;;;;;5010364;28;20049;-65
2021/09/10 03:17:37;;;;;;;16.25;14.68;;;15.30;99.90;;;;;;5010165;28;20042;-67
2021/09/10 03:20:05;;;;;;;17.73;15.30;;;15.30;99.90;;;;;;5008804;28;20066;-68
2021/09/10 03:22:32;;;;;;;16.17;14.48;;;15.30;99.90;;;;;;5009933;28;20126;-67
2021/09/10 03:24:59;;;;;;;18.25;16.45;;;15.30;99.90;;;;;;5009967;28;20080;-67
2021/09/10 03:27:27;;;;;;;19.98;17.85;;;15.30;99.90;;;;;;5010184;28;20423;-68
2021/09/10 03:29:55;;;;;;;16.42;14.85;;;15.30;99.90;;;;;;5008610;28;20082;-65
2021/09/10 03:32:22;;;;;;;19.67;17.67;;;15.30;99.90;;;;;;5009930;28;20070;-66
2021/09/10 03:34:49;;;;;;;16.80;15.18;;;15.30;99.90;;;;;;5009868;28;20046;-68
2021/09/10 03:37:16;;;;;;;20.58;16.95;;;15.40;99.90;;;;;;5010236;28;20077;-68
2021/09/10 03:39:43;;;;;;;17.35;15.55;;;15.40;99.90;;;;;;5010132;28;20050;-68
2021/09/10 03:42:10;;;;;;;19.83;15.57;;;15.50;99.90;;;;;;5008079;28;20108;-68
2021/09/10 03:44:37;;;;;;;16.00;14.50;;;15.50;99.90;;;;;;5009980;28;20042;-67
2021/09/10 03:47:04;;;;;;;16.85;15.15;;;15.50;99.90;;;;;;5009936;28;20084;-66
2021/09/10 03:49:33;;;;;;;16.98;15.23;;;15.50;99.90;;;;;;5010207;28;20100;-67
2021/09/10 03:52:01;;;;;;;17.67;15.95;;;15.50;99.90;;;;;;5008522;28;20073;-67
2021/09/10 03:54:28;;;;;;;17.27;15.48;;;15.50;99.90;;;;;;5009778;28;20443;-69
2021/09/10 03:56:54;;;;;;;18.05;16.13;;;15.50;99.90;;;;;;5009945;28;20176;-67
2021/09/10 03:59:22;;;;;;;16.80;15.25;;;15.50;99.90;;;;;;5009895;28;20089;-68
2021/09/10 04:01:50;;;;;;;19.60;17.50;;;15.50;99.90;;;;;;5009994;28;20522;-69
2021/09/10 04:04:18;;;;;;;16.67;14.98;;;15.60;99.90;;;;;;5007965;28;20054;-69
2021/09/10 04:06:45;;;;;;;17.60;15.90;;;15.60;99.90;;;;;;5009865;28;20050;-65
2021/09/10 04:09:12;;;;;;;16.08;14.38;;;15.60;99.90;;;;;;5009363;28;20404;-66
2021/09/10 04:11:40;;;;;;;18.38;16.48;;;15.60;99.90;;;;;;5009485;28;20157;-67
2021/09/10 04:14:07;;;;;;;16.90;15.13;;;15.60;99.90;;;;;;5007503;28;20096;-71
2021/09/10 04:16:35;;;;;;;17.63;15.95;;;15.60;99.90;;;;;;5008825;28;20050;-68
2021/09/10 04:19:02;;;;;;;18.45;16.63;;;15.60;99.90;;;;;;5009127;28;20381;-66
2021/09/10 04:21:30;;;;;;;19.67;17.77;;;15.60;99.90;;;;;;5009082;28;20085;-68
2021/09/10 04:23:57;;;;;;;16.77;15.13;;;15.60;99.90;;;;;;5007005;28;20070;-68
2021/09/10 04:26:23;;;;;;;15.32;13.90;;;15.60;99.90;;;;;;5011692;28;20125;-65
2021/09/10 04:28:51;;;;;;;17.25;15.32;;;15.60;99.90;;;;;;5012178;28;20078;-66
2021/09/10 04:31:19;;;;;;;18.27;16.10;;;15.60;99.90;;;;;;5012177;28;20528;-68
2021/09/10 04:33:47;;;;;;;20.60;15.98;;;15.60;99.90;;;;;;5012102;28;20065;-70
2021/09/10 04:36:14;;;;;;;15.80;14.32;;;15.60;99.90;;;;;;5009923;28;20061;-67
2021/09/10 04:38:41;;;;;;;20.02;17.48;;;15.60;99.90;;;;;;5012011;28;20078;-67
2021/09/10 04:41:08;;;;;;;18.02;16.27;;;15.70;99.90;;;;;;5011800;28;20538;-69
2021/09/10 04:43:35;;;;;;;16.95;15.23;;;15.70;99.90;;;;;;5012153;28;20123;-68
2021/09/10 04:46:02;;;;;;;18.02;15.77;;;15.70;99.90;;;;;;5010299;28;20157;-68
2021/09/10 04:48:29;;;;;;;21.27;17.98;;;15.70;99.90;;;;;;5011535;28;20471;-65
2021/09/10 04:50:56;;;;;;;19.35;17.38;;;15.80;99.90;;;;;;5011923;28;20416;-68
2021/09/10 04:53:23;;;;;;;20.30;16.92;;;15.80;99.90;;;;;;5011934;28;20116;-65
2021/09/10 04:55:50;;;;;;;15.75;14.35;;;15.80;99.90;;;;;;5011002;28;20092;-65
2021/09/10 04:58:17;;;;;;;18.60;15.05;;;15.80;99.90;;;;;;5010988;28;20451;-67
2021/09/10 05:00:44;;;;;;;19.30;16.83;;;15.90;99.90;;;;;;5011485;28;20164;-66
2021/09/10 05:03:11;;;;;;;19.35;16.90;;;15.90;99.90;;;;;;5011830;28;20472;-66
2021/09/10 05:05:39;;;;;;;17.90;16.17;;;15.90;99.90;;;;;;5012736;28;20050;-68
2021/09/10 05:08:06;;;;;;;18.35;16.48;;;16.00;99.90;;;;;;5010631;28;20416;-66
2021/09/10 05:10:33;;;;;;;18.48;16.50;;;16.00;99.90;;;;;;5012482;28;20115;-67
2021/09/10 05:12:59;;;;;;;15.95;13.95;;;16.00;99.90;;;;;;5012304;28;20518;-65
2021/09/10 05:15:27;;;;;;;17.38;15.55;;;16.10;99.90;;;;;;5012400;28;20080;-67
2021/09/10 05:17:53;;;;;;;21.60;18.73;;;16.10;99.90;;;;;;5009750;28;20080;-71
2021/09/10 05:20:20;;;;;;;17.83;15.40;;;16.10;99.90;;;;;;5011655;28;20527;-73
2021/09/10 05:22:47;;;;;;;19.33;17.23;;;16.20;99.90;;;;;;5011834;28;20109;-66
2021/09/10 05:25:14;;;;;;;15.18;13.57;;;16.20;99.90;;;;;;5010371;28;20074;-70
2021/09/10 05:27:41;;;;;;;19.33;17.33;;;16.20;99.90;;;;;;5012399;28;20056;-66
2021/09/10 05:30:08;;;;;;;17.83;14.90;;;16.30;99.90;;;;;;5010435;28;20081;-66
2021/09/10 05:32:35;;;;;;;15.40;13.82;;;16.30;99.90;;;;;;5011558;28;20085;-69
2021/09/10 05:35:02;;;;;;;19.10;17.17;;;16.40;99.90;;;;;;5011878;28;20392;-66
2021/09/10 05:37:29;;;;;;;17.70;14.68;;;16.40;99.90;;;;;;5011404;28;20066;-70
2021/09/10 05:39:56;;;;;;;17.27;15.57;;;16.50;99.90;;;;;;5008598;28;20057;-70
2021/09/10 05:42:23;;;;;;;17.85;16.00;;;16.50;99.90;;;;;;5011582;28;20061;-66
2021/09/10 05:44:49;;;;;;;19.48;17.45;;;16.60;99.90;;;;;;5011282;28;20046;-66
2021/09/10 05:47:16;;;;;;;17.90;16.05;;;16.60;99.90;;;;;;5011681;28;20053;-69
2021/09/10 05:49:43;;;;;;;17.85;16.00;;;16.60;99.90;;;;;;5011654;28;20136;-66
2021/09/10 05:52:10;;;;;;;22.65;14.90;;;16.60;99.90;;;;;;5010095;28;20066;-68
2021/09/10 05:54:37;;;;;;;18.02;16.10;;;16.70;99.90;;;;;;5011700;28;20134;-70
2021/09/10 05:57:05;;;;;;;19.63;16.48;;;16.70;99.90;;;;;;5011180;28;20456;-68
2021/09/10 05:59:32;;;;;;;21.00;15.98;;;16.80;99.90;;;;;;5011612;28;20050;-67
2021/09/10 06:01:58;;;;;;;17.65;15.80;;;16.90;99.90;;;;;;5009740;28;20076;-70
2021/09/10 06:04:26;;;;;;;17.95;16.02;;;16.90;99.90;;;;;;5010946;28;20050;-66
2021/09/10 06:06:53;;;;;;;21.92;15.52;;;17.00;99.90;;;;;;5011073;28;20141;-65
2021/09/10 06:09:20;;;;;;;17.02;15.27;;;17.10;99.90;;;;;;5010998;28;20435;-70
2021/09/10 06:11:46;;;;;;;17.67;15.75;;;17.20;99.90;;;;;;5011206;28;20054;-66
2021/09/10 06:14:13;;;;;;;18.83;17.02;;;17.20;99.90;;;;;;5009512;28;20066;-65
2021/09/10 06:16:40;;;;;;;14.70;13.25;;;17.30;99.90;;;;;;5010949;28;20081;-67
2021/09/10 06:19:07;;;;;;;18.20;16.40;;;17.40;99.90;;;;;;5010696;28;20476;-69
2021/09/10 06:21:34;;;;;;;16.77;14.93;;;17.50;99.90;;;;;;5010755;28;20074;-67
2021/09/10 06:24:01;;;;;;;15.95;14.38;;;17.50;99.90;;;;;;5008872;28;20080;-70
2021/09/10 06:26:29;;;;;;;17.55;13.73;;;17.60;99.90;;;;;;5010509;28;20128;-63
2021/09/10 06:28:56;;;;;;;14.93;13.45;;;17.60;99.90;;;;;;5010659;28;20058;-64
2021/09/10 06:31:23;;;;;;;15.63;14.07;;;17.70;99.90;;;;;;5010345;28;20104;-66
2021/09/10 06:33:50;;;;;;;15.65;14.15;;;17.80;99.90;;;;;;5010822;28;20409;-64
2021/09/10 06:36:17;;;;;;;15.45;13.90;;;17.80;99.90;;;;;;5008629;28;20045;-65
2021/09/10 06:38:48;;;;;;;15.25;13.07;;;17.90;99.90;;;;;;5010352;28;20096;-67
2021/09/10 06:41:15;;;;;;;13.43;12.02;;;18.00;99.90;;;;;;5010323;28;20073;-66
2021/09/10 06:43:42;;;;;;;17.90;14.50;;;18.00;99.90;;;;;;5010648;28;20053;-67
2021/09/10 06:46:09;;;;;;;17.10;15.10;;;18.00;99.90;;;;;;5008407;28;20061;-67
2021/09/10 06:48:36;;;;;;;16.92;14.23;;;18.10;99.90;;;;;;5008288;28;20053;-64
2021/09/10 06:51:03;;;;;;;19.08;16.13;;;18.10;99.90;;;;;;5010153;28;20433;-66
2021/09/10 06:53:30;;;;;;;16.90;15.23;;;18.20;99.90;;;;;;5009944;28;20112;-68
2021/09/10 06:55:58;;;;;;;21.85;15.38;;;18.30;99.90;;;;;;5008678;28;20108;-68
2021/09/10 06:58:25;;;;;;;17.17;15.35;;;18.40;99.90;;;;;;5010142;28;20050;-63
2021/09/10 07:00:51;;;;;;;18.95;17.00;;;18.50;99.90;;;;;;5009965;28;20050;-64
2021/09/10 07:03:19;;;;;;;16.42;14.82;;;18.50;99.90;;;;;;5009949;28;20060;-67
2021/09/10 07:05:46;;;;;;;16.52;12.95;;;18.60;99.90;;;;;;5010102;28;20045;-63
2021/09/10 07:08:13;;;;;;;19.00;13.00;;;18.70;99.90;;;;;;5008203;28;20398;-67
2021/09/10 07:10:40;;;;;;;19.25;16.48;;;18.70;99.90;;;;;;5010119;28;20550;-65
2021/09/10 07:13:06;;;;;;;17.50;15.68;;;18.70;99.90;;;;;;5010011;28;20072;-65
2021/09/10 07:15:33;;;;;;;16.77;14.02;;;18.70;99.90;;;;;;5010114;28;20073;-68
2021/09/10 07:18:01;;;;;;;17.17;15.45;;;18.70;99.90;;;;;;5008231;28;20084;-67
2021/09/10 07:20:28;;;;;;;14.95;13.32;;;18.70;99.90;;;;;;5009447;28;20081;-66
2021/09/10 07:22:55;;;;;;;17.35;13.93;;;18.80;99.90;;;;;;5009793;28;20053;-65
2021/09/10 07:25:22;;;;;;;14.68;13.25;;;18.90;99.90;;;;;;5009423;28;20133;-67
2021/09/10 07:27:49;;;;;;;16.88;15.20;;;18.80;99.90;;;;;;5009753;28;20111;-65
2021/09/10 07:30:16;;;;;;;19.83;15.25;;;18.70;99.90;;;;;;5008212;28;20081;-67
2021/09/10 07:32:43;;;;;;;17.27;15.30;;;18.60;99.90;;;;;;5009813;28;20081;-66
2021/09/10 07:35:10;;;;;;;14.88;13.07;;;18.50;99.90;;;;;;5009909;28;20420;-67
2021/09/10 07:37:37;;;;;;;15.35;13.70;;;18.50;99.90;;;;;;5009769;28;20508;-67
2021/09/10 07:40:06;;;;;;;17.08;14.98;;;18.60;99.90;;;;;;5007867;28;20104;-67
2021/09/10 07:42:33;;;;;;;15.55;13.85;;;18.70;99.90;;;;;;5009707;28;20066;-67
2021/09/10 07:45:00;;;;;;;20.50;15.35;;;18.70;99.90;;;;;;5009516;28;20046;-69
2021/09/10 07:47:26;;;;;;;18.23;15.77;;;18.60;99.90;;;;;;5009721;28;20061;-69
2021/09/10 07:49:54;;;;;;;15.48;13.32;;;18.50;99.90;;;;;;5008256;28;20050;-65
2021/09/10 07:52:21;;;;;;;17.80;16.10;;;18.40;99.90;;;;;;5009664;28;20050;-68
2021/09/10 07:54:47;;;;;;;15.95;13.63;;;18.50;99.90;;;;;;5009642;28;20108;-67
2021/09/10 07:57:22;;;;;;;14.55;13.15;;;18.50;99.90;;;;;;5009746;28;20096;-65
2021/09/10 07:59:55;;;;;;;16.42;14.80;;;18.50;99.90;;;;;;5012452;28;20046;-67
2021/09/10 08:02:23;;;;;;;18.10;16.25;;;18.50;99.90;;;;;;5027222;28;20391;-67
2021/09/10 08:04:50;;;;;;;17.20;15.05;;;18.60;99.90;;;;;;5013832;28;20049;-65
2021/09/10 08:07:18;;;;;;;17.20;15.40;;;18.60;99.90;;;;;;5013110;28;20176;-65
2021/09/10 08:09:57;;;;;;;14.60;13.10;;;18.60;99.90;;;;;;5011671;28;20117;-68
2021/09/10 08:12:24;;;;;;;16.55;14.57;;;18.60;99.90;;;;;;5013080;28;20779;-65
2021/09/10 08:14:51;;;;;;;15.73;14.13;;;18.70;99.90;;;;;;5013185;28;20601;-68
2021/09/10 08:17:18;;;;;;;17.20;15.25;;;18.70;99.90;;;;;;5012890;28;20061;-66
2021/09/10 08:19:46;;;;;;;18.60;15.05;;;18.80;99.90;;;;;;5013678;28;20109;-67
2021/09/10 08:22:12;;;;;;;18.30;16.02;;;18.80;99.90;;;;;;5011915;28;20046;-69
2021/09/10 08:24:53;;;;;;;15.93;14.20;;;18.70;99.90;;;;;;5013182;28;20056;-69
2021/09/10 08:27:20;;;;;;;15.23;13.13;;;18.70;99.90;;;;;;5013138;28;20041;-66
2021/09/10 08:29:52;;;;;;;16.33;14.68;;;18.70;99.90;;;;;;5011717;28;20073;-66
2021/09/10 08:32:20;;;;;;;15.40;13.80;;;18.70;99.90;;;;;;5012498;28;20189;-66
2021/09/10 08:34:47;;;;;;;16.33;14.77;;;18.80;99.90;;;;;;5012413;28;20062;-65
2021/09/10 08:37:14;;;;;;;18.23;16.33;;;18.80;99.90;;;;;;5012830;28;20073;-68
2021/09/10 08:39:41;;;;;;;16.85;15.15;;;18.90;99.90;;;;;;5012380;28;20050;-67
2021/09/10 08:42:08;;;;;;;18.50;15.07;;;18.90;99.90;;;;;;5010441;28;20104;-68
2021/09/10 08:44:39;;;;;;;18.83;15.45;;;18.80;99.90;;;;;;5012404;28;20077;-65
2021/09/10 08:47:07;;;;;;;16.73;13.30;;;18.90;99.90;;;;;;5012618;28;20050;-65
2021/09/10 08:49:34;;;;;;;22.23;14.95;;;19.00;99.90;;;;;;5012833;28;20133;-65
2021/09/10 08:52:01;;;;;;;13.85;12.45;;;19.00;99.90;;;;;;5010715;28;20058;-68
2021/09/10 08:54:28;;;;;;;21.27;14.55;;;19.10;99.90;;;;;;5012196;28;20050;-65
2021/09/10 08:56:55;;;;;;;19.52;14.32;;;19.10;99.90;;;;;;5012320;28;20053;-66
2021/09/10 08:59:22;;;;;;;13.70;12.27;;;19.10;99.90;;;;;;5010949;28;20123;-67
2021/09/10 09:01:50;;;;;;;17.85;16.05;;;19.10;99.90;;;;;;5012575;28;20202;-69
2021/09/10 09:04:19;;;;;;;16.58;14.80;;;19.00;99.90;;;;;;5010511;28;20072;-68
2021/09/10 09:06:53;;;;;;;16.10;14.18;;;18.90;99.90;;;;;;5011992;28;20089;-66
2021/09/10 09:09:40;;;;;;;15.68;13.13;;;18.90;99.90;;;;;;5011921;28;20046;-67
2021/09/10 09:12:29;;;;;;;16.50;14.35;;;19.10;99.90;;;;;;5010181;28;20415;-68
2021/09/10 09:15:02;;;;;;;14.88;13.43;;;19.20;99.90;;;;;;5011943;28;20162;-65
2021/09/10 09:17:33;;;;;;;15.98;13.77;;;19.30;99.90;;;;;;5011436;28;20579;-65
2021/09/10 09:20:23;;;;;;;13.65;12.27;;;19.40;99.90;;;;;;5010992;28;20441;-65
2021/09/10 09:23:11;;;;;;;16.80;13.90;;;19.40;99.90;;;;;;5011629;28;20080;-65
2021/09/10 09:25:41;;;;;;;13.38;12.07;;;19.50;99.90;;;;;;5011266;28;20095;-67
2021/09/10 09:28:16;;;;;;;16.88;14.95;;;19.50;99.90;;;;;;5009895;28;20073;-69
2021/09/10 09:30:43;;;;;;;16.25;14.27;;;19.40;99.90;;;;;;5011949;28;20177;-67
2021/09/10 09:33:12;;;;;;;14.43;12.85;;;19.40;99.90;;;;;;5010564;28;20133;-68
2021/09/10 09:35:41;;;;;;;14.75;13.25;;;19.50;99.90;;;;;;5010807;28;20090;-66
2021/09/10 09:38:16;;;;;;;15.27;13.85;;;19.50;99.90;;;;;;5010189;28;20442;-66
2021/09/10 09:40:45;;;;;;;18.73;14.63;;;19.60;99.90;;;;;;5011337;28;20175;-67
2021/09/10 09:43:13;;;;;;;14.30;12.52;;;19.60;99.90;;;;;;5011561;28;20053;-66
2021/09/10 09:45:41;;;;;;;19.05;14.10;;;19.60;99.90;;;;;;5011450;28;20456;-66
2021/09/10 09:48:12;;;;;;;15.30;13.75;;;19.60;99.90;;;;;;5009966;28;20414;-70
2021/09/10 09:50:40;;;;;;;14.98;12.77;;;19.40;99.90;;;;;;5011090;28;20042;-67
2021/09/10 09:53:07;;;;;;;16.65;12.98;;;19.50;99.90;;;;;;5011336;28;20050;-67
2021/09/10 09:55:35;;;;;;;14.57;12.80;;;19.60;99.90;;;;;;5011476;28;20085;-67
2021/09/10 09:58:06;;;;;;;15.25;13.65;;;19.70;99.90;;;;;;5009759;28;20073;-67
2021/09/10 10:00:38;;;;;;;14.63;13.15;;;19.80;99.90;;;;;;5011548;28;20038;-69
2021/09/10 10:03:06;;;;;;;15.45;13.15;;;19.80;99.90;;;;;;5010871;28;20484;-66
2021/09/10 10:05:46;;;;;;;13.80;12.45;;;20.00;99.90;;;;;;5010764;28;20058;-65
2021/09/10 10:08:25;;;;;;;14.85;13.43;;;20.30;99.90;;;;;;5009870;28;20049;-69
2021/09/10 10:11:17;;;;;;;13.55;12.25;;;20.50;99.90;;;;;;5011391;28;20072;-65
2021/09/10 10:13:44;;;;;;;13.48;11.85;;;20.60;99.90;;;;;;5011133;28;20050;-67
2021/09/10 10:16:36;;;;;;;16.15;11.70;;;20.70;99.90;;;;;;5009790;28;20415;-68
2021/09/10 10:19:05;;;;;;;14.60;11.70;;;20.90;99.90;;;;;;5009760;28;20054;-67
2021/09/10 10:21:51;;;;;;;15.25;12.73;;;21.10;99.90;;;;;;5010658;28;20050;-66
2021/09/10 10:24:49;;;;;;;12.32;10.70;;;21.20;99.90;;;;;;5009196;28;20072;-67
2021/09/10 10:27:36;;;;;;;11.68;10.50;;;21.40;99.90;;;;;;5009997;28;20050;-67
2021/09/10 10:30:35;;;;;;;13.18;11.88;;;21.50;99.90;;;;;;5009339;28;20081;-67
2021/09/10 10:33:23;;;;;;;14.07;10.63;;;21.60;99.90;;;;;;5010400;28;20392;-67
2021/09/10 10:35:50;;;;;;;11.25;10.15;;;21.50;99.90;;;;;;5010933;28;20142;-67
2021/09/10 10:38:17;;;;;;;11.25;10.18;;;21.60;99.90;;;;;;5009023;28;20149;-68
2021/09/10 10:40:51;;;;;;;12.10;10.90;;;21.70;99.90;;;;;;5010824;28;20070;-68
2021/09/10 10:43:18;;;;;;;15.48;10.80;;;21.70;99.90;;;;;;5011091;28;20050;-68
2021/09/10 10:45:45;;;;;;;14.38;11.73;;;21.60;99.90;;;;;;5010893;28;20565;-69
2021/09/10 10:48:41;;;;;;;15.20;11.77;;;21.60;99.90;;;;;;5009248;28;20073;-65
2021/09/10 10:51:14;;;;;;;12.50;10.13;;;21.70;99.90;;;;;;5010484;28;20137;-67
2021/09/10 10:53:46;;;;;;;10.98;9.82;;;21.70;99.90;;;;;;5010847;28;20042;-65
2021/09/10 10:56:26;;;;;;;12.82;11.25;;;21.60;99.90;;;;;;5009760;28;20073;-68
2021/09/10 10:59:11;;;;;;;12.55;10.55;;;21.60;99.90;;;;;;5011090;28;20104;-65
2021/09/10 11:02:22;;;;;;;20.45;13.80;;;21.50;99.90;;;;;;5011063;28;20113;-66
2021/09/10 11:04:51;;;;;;;11.23;10.05;;;21.60;99.90;;;;;;5009962;28;20050;-69
2021/09/10 11:07:26;;;;;;;12.25;11.05;;;21.40;99.90;;;;;;5010952;28;20137;-68
2021/09/10 11:10:04;;;;;;;11.85;9.55;;;21.50;99.90;;;;;;5009523;28;20066;-66
2021/09/10 11:12:33;;;;;;;12.18;10.88;;;21.50;99.90;;;;;;5010917;28;20088;-66
2021/09/10 11:15:01;;;;;;;12.82;11.20;;;21.50;99.90;;;;;;5010963;28;20053;-66
2021/09/10 11:17:28;;;;;;;13.10;11.00;;;21.50;99.90;;;;;;5010395;28;20113;-65
2021/09/10 11:19:56;;;;;;;12.48;11.15;;;21.50;99.90;;;;;;5009292;28;20489;-67
2021/09/10 11:22:25;;;;;;;15.45;11.98;;;21.40;99.90;;;;;;5010428;28;20074;-66
2021/09/10 11:25:12;;;;;;;13.45;11.98;;;21.40;99.90;;;;;;5010619;28;20073;-66
2021/09/10 11:27:40;;;;;;;12.75;11.60;;;21.30;99.90;;;;;;5010873;28;20070;-68
2021/09/10 11:30:11;;;;;;;13.52;12.13;;;21.20;99.90;;;;;;5009180;28;20481;-65
2021/09/10 11:32:39;;;;;;;13.23;11.50;;;21.20;99.90;;;;;;5010458;28;20054;-65
2021/09/10 11:35:24;;;;;;;13.63;12.25;;;21.10;99.90;;;;;;5013732;28;20054;-66
2021/09/10 11:37:58;;;;;;;17.13;14.20;;;21.10;99.90;;;;;;5013194;28;20093;-66
2021/09/10 11:40:34;;;;;;;14.25;13.05;;;20.90;99.90;;;;;;5014698;28;20073;-69
2021/09/10 11:43:09;;;;;;;13.48;12.18;;;21.00;99.90;;;;;;5014714;28;20053;-65
2021/09/10 11:45:44;;;;;;;14.73;13.30;;;21.00;99.90;;;;;;5014633;28;20073;-68
2021/09/10 11:48:14;;;;;;;13.48;11.40;;;21.10;99.90;;;;;;5012816;28;21427;-65
2021/09/10 11:50:50;;;;;;;12.60;11.30;;;21.20;99.90;;;;;;5014621;28;20100;-66
2021/09/10 11:53:28;;;;;;;13.77;12.10;;;21.30;99.90;;;;;;5014535;28;20107;-65
2021/09/10 11:55:58;;;;;;;13.25;12.02;;;21.20;99.90;;;;;;5013119;28;20042;-64
2021/09/10 11:58:43;;;;;;;14.38;11.98;;;21.20;99.90;;;;;;5014590;28;20510;-66
2021/09/10 12:01:12;;;;;;;13.13;11.82;;;21.10;99.90;;;;;;5014436;28;20042;-65
2021/09/10 12:03:59;;;;;;;14.07;12.70;;;21.10;99.90;;;;;;5014085;28;20062;-66
2021/09/10 12:06:32;;;;;;;13.50;12.13;;;21.20;99.90;;;;;;5012987;28;20042;-66
2021/09/10 12:09:23;;;;;;;13.88;12.57;;;21.10;99.90;;;;;;5014448;28;20046;-66
2021/09/10 12:12:04;;;;;;;;;;;21.10;99.90;;;;;;5015013;28;20050;-65
2021/09/10 12:14:36;;;;;;;13.52;12.25;;;21.10;99.90;;;;;;5012915;28;19922;-63
2021/09/10 12:17:24;;;;;;;13.77;12.38;;;21.20;99.90;;;;;;5013932;28;20196;-64
2021/09/10 12:19:55;;;;;;;13.90;12.55;;;21.10;99.90;;;;;;5012919;28;20066;-66
2021/09/10 12:22:45;;;;;;;15.43;13.07;;;20.90;99.90;;;;;;5014474;28;20096;-65
2021/09/10 12:25:41;;;;;;;13.15;11.85;;;20.90;99.90;;;;;;5014284;28;20054;-66
2021/09/10 12:28:09;;;;;;;13.05;11.77;;;21.00;99.90;;;;;;5011909;28;20138;-63
2021/09/10 12:30:43;;;;;;;15.25;12.85;;;21.10;99.90;;;;;;5013863;28;20459;-66
2021/09/10 12:33:14;;;;;;;13.25;11.80;;;21.20;99.90;;;;;;5013708;28;20054;-67
2021/09/10 12:35:42;;;;;;;13.85;12.38;;;21.10;99.90;;;;;;5014303;28;20104;-66
2021/09/10 12:38:14;;;;;;;14.52;13.05;;;21.00;99.90;;;;;;5012020;28;20457;-65
2021/09/10 12:40:50;;;;;;;18.42;14.27;;;21.10;99.90;;;;;;5014072;28;20049;-68